sensor_id;sensor_type;location;lat;lon;timestamp;P1;durP1;ratioP1;P2;durP2;ratioP2
52718;SDS011;38616;42.140;24.760;2022-07-11T00:01:49;2.17;;;1.23;;
52718;SDS011;38616;42.140;24.760;2022-07-11T00:04:14;3.95;;;1.45;;
52718;SDS011;38616;42.140;24.760;2022-07-11T00:06:39;1.42;;;1.27;;
52718;SDS011;38616;42.140;24.760;2022-07-11T00:09:05;1.52;;;1.30;;
52718;SDS011;38616;42.140;24.760;2022-07-11T00:11:30;1.35;;;1.15;;
52718;SDS011;38616;42.140;24.760;2022-07-11T00:13:56;1.67;;;1.40;;
52718;SDS011;38616;42.140;24.760;2022-07-11T00:16:21;1.55;;;1.42;;
52718;SDS011;38616;42.140;24.760;2022-07-11T00:18:47;1.63;;;1.13;;
52718;SDS011;38616;42.140;24.760;2022-07-11T00:21:12;1.42;;;1.30;;
52718;SDS011;38616;42.140;24.760;2022-07-11T00:23:37;2.45;;;1.48;;
52718;SDS011;38616;42.140;24.760;2022-07-11T00:26:03;2.33;;;1.50;;
52718;SDS011;38616;42.140;24.760;2022-07-11T00:28:29;2.47;;;1.95;;
52718;SDS011;38616;42.140;24.760;2022-07-11T00:30:55;2.50;;;1.50;;
52718;SDS011;38616;42.140;24.760;2022-07-11T00:33:21;3.53;;;1.73;;
52718;SDS011;38616;42.140;24.760;2022-07-11T00:35:46;4.07;;;1.55;;
52718;SDS011;38616;42.140;24.760;2022-07-11T00:38:12;1.65;;;1.52;;
52718;SDS011;38616;42.140;24.760;2022-07-11T00:40:38;1.52;;;1.15;;
52718;SDS011;38616;42.140;24.760;2022-07-11T00:43:03;2.58;;;1.25;;
52718;SDS011;38616;42.140;24.760;2022-07-11T00:45:29;2.67;;;1.60;;
52718;SDS011;38616;42.140;24.760;2022-07-11T00:47:55;2.10;;;1.27;;
52718;SDS011;38616;42.140;24.760;2022-07-11T00:50:23;4.10;;;1.27;;
52718;SDS011;38616;42.140;24.760;2022-07-11T00:52:50;2.25;;;1.40;;
52718;SDS011;38616;42.140;24.760;2022-07-11T00:55:16;3.30;;;1.53;;
52718;SDS011;38616;42.140;24.760;2022-07-11T00:57:43;3.85;;;1.70;;
52718;SDS011;38616;42.140;24.760;2022-07-11T01:00:09;2.40;;;1.50;;
52718;SDS011;38616;42.140;24.760;2022-07-11T01:02:36;6.63;;;1.60;;
52718;SDS011;38616;42.140;24.760;2022-07-11T01:05:01;2.55;;;1.27;;
52718;SDS011;38616;42.140;24.760;2022-07-11T01:07:26;2.35;;;1.40;;
52718;SDS011;38616;42.140;24.760;2022-07-11T01:09:52;1.80;;;1.30;;
52718;SDS011;38616;42.140;24.760;2022-07-11T01:12:18;3.67;;;1.55;;
52718;SDS011;38616;42.140;24.760;2022-07-11T01:14:50;2.45;;;1.52;;
52718;SDS011;38616;42.140;24.760;2022-07-11T01:17:22;2.03;;;1.33;;
52718;SDS011;38616;42.140;24.760;2022-07-11T01:19:48;1.80;;;1.58;;
52718;SDS011;38616;42.140;24.760;2022-07-11T01:22:14;2.67;;;1.40;;
52718;SDS011;38616;42.140;24.760;2022-07-11T01:24:41;1.85;;;1.30;;
52718;SDS011;38616;42.140;24.760;2022-07-11T01:27:07;1.52;;;1.42;;
52718;SDS011;38616;42.140;24.760;2022-07-11T01:29:33;1.48;;;1.38;;
52718;SDS011;38616;42.140;24.760;2022-07-11T01:31:59;3.13;;;1.63;;
52718;SDS011;38616;42.140;24.760;2022-07-11T01:34:24;1.90;;;1.55;;
52718;SDS011;38616;42.140;24.760;2022-07-11T01:36:50;1.58;;;1.48;;
52718;SDS011;38616;42.140;24.760;2022-07-11T01:39:15;5.35;;;1.60;;
52718;SDS011;38616;42.140;24.760;2022-07-11T01:41:41;2.85;;;1.50;;
52718;SDS011;38616;42.140;24.760;2022-07-11T01:44:06;2.10;;;1.63;;
52718;SDS011;38616;42.140;24.760;2022-07-11T01:46:32;4.18;;;1.92;;
52718;SDS011;38616;42.140;24.760;2022-07-11T01:48:57;1.58;;;1.13;;
52718;SDS011;38616;42.140;24.760;2022-07-11T01:51:23;1.42;;;1.20;;
52718;SDS011;38616;42.140;24.760;2022-07-11T01:53:49;1.20;;;1.10;;
52718;SDS011;38616;42.140;24.760;2022-07-11T01:56:15;2.42;;;1.77;;
52718;SDS011;38616;42.140;24.760;2022-07-11T01:58:41;5.43;;;1.98;;
52718;SDS011;38616;42.140;24.760;2022-07-11T02:01:06;1.65;;;1.30;;
52718;SDS011;38616;42.140;24.760;2022-07-11T02:03:31;5.50;;;1.50;;
52718;SDS011;38616;42.140;24.760;2022-07-11T02:05:57;3.50;;;1.40;;
52718;SDS011;38616;42.140;24.760;2022-07-11T02:08:22;1.40;;;1.30;;
52718;SDS011;38616;42.140;24.760;2022-07-11T02:10:49;2.85;;;1.33;;
52718;SDS011;38616;42.140;24.760;2022-07-11T02:13:17;2.20;;;1.30;;
52718;SDS011;38616;42.140;24.760;2022-07-11T02:15:45;1.50;;;1.40;;
52718;SDS011;38616;42.140;24.760;2022-07-11T02:18:11;2.37;;;1.50;;
52718;SDS011;38616;42.140;24.760;2022-07-11T02:20:38;1.63;;;1.30;;
52718;SDS011;38616;42.140;24.760;2022-07-11T02:23:05;4.03;;;1.48;;
52718;SDS011;38616;42.140;24.760;2022-07-11T02:25:30;4.43;;;1.58;;
52718;SDS011;38616;42.140;24.760;2022-07-11T02:27:57;3.90;;;1.50;;
52718;SDS011;38616;42.140;24.760;2022-07-11T02:30:22;2.65;;;1.27;;
52718;SDS011;38616;42.140;24.760;2022-07-11T02:32:49;2.05;;;1.17;;
52718;SDS011;38616;42.140;24.760;2022-07-11T02:35:15;2.65;;;1.40;;
52718;SDS011;38616;42.140;24.760;2022-07-11T02:37:41;4.68;;;1.33;;
52718;SDS011;38616;42.140;24.760;2022-07-11T02:40:06;4.45;;;1.45;;
52718;SDS011;38616;42.140;24.760;2022-07-11T02:42:32;3.17;;;1.20;;
52718;SDS011;38616;42.140;24.760;2022-07-11T02:44:58;2.08;;;1.25;;
52718;SDS011;38616;42.140;24.760;2022-07-11T02:47:23;3.38;;;1.77;;
52718;SDS011;38616;42.140;24.760;2022-07-11T02:49:49;1.63;;;1.20;;
52718;SDS011;38616;42.140;24.760;2022-07-11T02:52:14;8.02;;;1.52;;
52718;SDS011;38616;42.140;24.760;2022-07-11T02:54:39;2.15;;;1.30;;
52718;SDS011;38616;42.140;24.760;2022-07-11T02:57:05;3.42;;;1.20;;
52718;SDS011;38616;42.140;24.760;2022-07-11T02:59:30;4.25;;;1.70;;
52718;SDS011;38616;42.140;24.760;2022-07-11T03:01:56;3.40;;;1.45;;
52718;SDS011;38616;42.140;24.760;2022-07-11T03:04:21;1.45;;;1.35;;
52718;SDS011;38616;42.140;24.760;2022-07-11T03:06:47;2.17;;;1.60;;
52718;SDS011;38616;42.140;24.760;2022-07-11T03:09:12;2.65;;;1.40;;
52718;SDS011;38616;42.140;24.760;2022-07-11T03:11:38;1.20;;;1.10;;
52718;SDS011;38616;42.140;24.760;2022-07-11T03:14:03;4.40;;;1.40;;
52718;SDS011;38616;42.140;24.760;2022-07-11T03:16:29;1.60;;;1.40;;
52718;SDS011;38616;42.140;24.760;2022-07-11T03:18:55;2.67;;;1.50;;
52718;SDS011;38616;42.140;24.760;2022-07-11T03:21:22;3.78;;;1.83;;
52718;SDS011;38616;42.140;24.760;2022-07-11T03:23:48;3.75;;;2.08;;
52718;SDS011;38616;42.140;24.760;2022-07-11T03:26:15;2.80;;;1.75;;
52718;SDS011;38616;42.140;24.760;2022-07-11T03:28:41;2.83;;;1.65;;
52718;SDS011;38616;42.140;24.760;2022-07-11T03:31:06;2.70;;;1.40;;
52718;SDS011;38616;42.140;24.760;2022-07-11T03:33:31;1.33;;;1.23;;
52718;SDS011;38616;42.140;24.760;2022-07-11T03:35:57;2.40;;;1.42;;
52718;SDS011;38616;42.140;24.760;2022-07-11T03:38:22;3.42;;;1.38;;
52718;SDS011;38616;42.140;24.760;2022-07-11T03:40:48;2.10;;;1.60;;
52718;SDS011;38616;42.140;24.760;2022-07-11T03:43:14;3.28;;;1.63;;
52718;SDS011;38616;42.140;24.760;2022-07-11T03:45:40;4.00;;;1.40;;
52718;SDS011;38616;42.140;24.760;2022-07-11T03:48:06;1.33;;;1.23;;
52718;SDS011;38616;42.140;24.760;2022-07-11T03:50:32;1.13;;;1.02;;
52718;SDS011;38616;42.140;24.760;2022-07-11T03:52:58;2.05;;;1.45;;
52718;SDS011;38616;42.140;24.760;2022-07-11T03:55:24;2.47;;;1.33;;
52718;SDS011;38616;42.140;24.760;2022-07-11T03:57:50;4.80;;;2.22;;
52718;SDS011;38616;42.140;24.760;2022-07-11T04:00:15;4.15;;;2.13;;
52718;SDS011;38616;42.140;24.760;2022-07-11T04:02:41;3.42;;;1.55;;
52718;SDS011;38616;42.140;24.760;2022-07-11T04:05:07;2.30;;;1.20;;
52718;SDS011;38616;42.140;24.760;2022-07-11T04:07:33;2.45;;;1.30;;
52718;SDS011;38616;42.140;24.760;2022-07-11T04:09:58;1.70;;;1.40;;
52718;SDS011;38616;42.140;24.760;2022-07-11T04:12:23;2.20;;;1.30;;
52718;SDS011;38616;42.140;24.760;2022-07-11T04:14:49;3.63;;;1.83;;
52718;SDS011;38616;42.140;24.760;2022-07-11T04:17:15;2.38;;;1.25;;
52718;SDS011;38616;42.140;24.760;2022-07-11T04:19:40;4.03;;;1.38;;
52718;SDS011;38616;42.140;24.760;2022-07-11T04:22:10;6.13;;;1.70;;
52718;SDS011;38616;42.140;24.760;2022-07-11T04:24:35;5.25;;;3.03;;
52718;SDS011;38616;42.140;24.760;2022-07-11T04:27:01;3.05;;;1.13;;
52718;SDS011;38616;42.140;24.760;2022-07-11T04:29:26;2.28;;;1.50;;
52718;SDS011;38616;42.140;24.760;2022-07-11T04:31:52;1.92;;;1.60;;
52718;SDS011;38616;42.140;24.760;2022-07-11T04:34:17;5.78;;;1.70;;
52718;SDS011;38616;42.140;24.760;2022-07-11T04:36:43;1.83;;;1.30;;
52718;SDS011;38616;42.140;24.760;2022-07-11T04:39:09;1.80;;;1.27;;
52718;SDS011;38616;42.140;24.760;2022-07-11T04:41:34;5.50;;;1.88;;
52718;SDS011;38616;42.140;24.760;2022-07-11T04:44:00;2.70;;;1.45;;
52718;SDS011;38616;42.140;24.760;2022-07-11T04:46:25;3.72;;;1.30;;
52718;SDS011;38616;42.140;24.760;2022-07-11T04:48:51;4.45;;;1.77;;
52718;SDS011;38616;42.140;24.760;2022-07-11T04:51:16;5.00;;;1.50;;
52718;SDS011;38616;42.140;24.760;2022-07-11T04:53:42;3.08;;;1.33;;
52718;SDS011;38616;42.140;24.760;2022-07-11T04:56:08;4.80;;;1.33;;
52718;SDS011;38616;42.140;24.760;2022-07-11T04:58:34;4.72;;;1.17;;
52718;SDS011;38616;42.140;24.760;2022-07-11T05:01:00;4.82;;;2.13;;
52718;SDS011;38616;42.140;24.760;2022-07-11T05:03:26;2.15;;;1.30;;
52718;SDS011;38616;42.140;24.760;2022-07-11T05:05:51;3.33;;;1.30;;
52718;SDS011;38616;42.140;24.760;2022-07-11T05:08:17;2.80;;;1.70;;
52718;SDS011;38616;42.140;24.760;2022-07-11T05:10:42;4.30;;;2.35;;
52718;SDS011;38616;42.140;24.760;2022-07-11T05:13:07;2.53;;;1.60;;
52718;SDS011;38616;42.140;24.760;2022-07-11T05:15:33;8.07;;;2.65;;
52718;SDS011;38616;42.140;24.760;2022-07-11T05:17:59;6.65;;;1.70;;
52718;SDS011;38616;42.140;24.760;2022-07-11T05:20:24;7.35;;;2.85;;
52718;SDS011;38616;42.140;24.760;2022-07-11T05:22:49;3.65;;;1.70;;
52718;SDS011;38616;42.140;24.760;2022-07-11T05:25:15;5.15;;;3.03;;
52718;SDS011;38616;42.140;24.760;2022-07-11T05:27:40;2.42;;;1.95;;
52718;SDS011;38616;42.140;24.760;2022-07-11T05:30:06;5.28;;;1.50;;
52718;SDS011;38616;42.140;24.760;2022-07-11T05:32:33;1.65;;;1.45;;
52718;SDS011;38616;42.140;24.760;2022-07-11T05:34:59;3.00;;;1.17;;
52718;SDS011;38616;42.140;24.760;2022-07-11T05:37:27;2.25;;;1.35;;
52718;SDS011;38616;42.140;24.760;2022-07-11T05:39:52;4.75;;;1.27;;
52718;SDS011;38616;42.140;24.760;2022-07-11T05:42:18;4.20;;;0.85;;
52718;SDS011;38616;42.140;24.760;2022-07-11T05:44:43;1.65;;;1.00;;
52718;SDS011;38616;42.140;24.760;2022-07-11T05:47:09;2.28;;;1.10;;
52718;SDS011;38616;42.140;24.760;2022-07-11T05:49:34;2.63;;;1.63;;
52718;SDS011;38616;42.140;24.760;2022-07-11T05:52:00;1.75;;;1.13;;
52718;SDS011;38616;42.140;24.760;2022-07-11T05:54:27;1.60;;;1.30;;
52718;SDS011;38616;42.140;24.760;2022-07-11T05:56:53;6.95;;;1.20;;
52718;SDS011;38616;42.140;24.760;2022-07-11T05:59:20;4.00;;;1.30;;
52718;SDS011;38616;42.140;24.760;2022-07-11T06:01:45;3.30;;;1.20;;
52718;SDS011;38616;42.140;24.760;2022-07-11T06:04:11;2.63;;;1.35;;
52718;SDS011;38616;42.140;24.760;2022-07-11T06:06:37;2.72;;;1.30;;
52718;SDS011;38616;42.140;24.760;2022-07-11T06:09:04;1.67;;;1.23;;
52718;SDS011;38616;42.140;24.760;2022-07-11T06:11:29;1.92;;;1.27;;
52718;SDS011;38616;42.140;24.760;2022-07-11T06:13:56;2.85;;;1.25;;
52718;SDS011;38616;42.140;24.760;2022-07-11T06:16:21;3.28;;;1.63;;
52718;SDS011;38616;42.140;24.760;2022-07-11T06:18:47;4.80;;;1.17;;
52718;SDS011;38616;42.140;24.760;2022-07-11T06:21:13;1.23;;;1.13;;
52718;SDS011;38616;42.140;24.760;2022-07-11T06:23:38;1.95;;;1.30;;
52718;SDS011;38616;42.140;24.760;2022-07-11T06:26:05;5.50;;;1.05;;
52718;SDS011;38616;42.140;24.760;2022-07-11T06:28:31;1.55;;;0.75;;
52718;SDS011;38616;42.140;24.760;2022-07-11T06:30:57;1.52;;;1.17;;
52718;SDS011;38616;42.140;24.760;2022-07-11T06:33:22;1.08;;;1.00;;
52718;SDS011;38616;42.140;24.760;2022-07-11T06:35:48;3.55;;;0.82;;
52718;SDS011;38616;42.140;24.760;2022-07-11T06:38:15;8.02;;;1.27;;
52718;SDS011;38616;42.140;24.760;2022-07-11T06:40:41;5.35;;;0.93;;
52718;SDS011;38616;42.140;24.760;2022-07-11T06:43:08;3.33;;;0.90;;
52718;SDS011;38616;42.140;24.760;2022-07-11T06:45:34;1.92;;;0.90;;
52718;SDS011;38616;42.140;24.760;2022-07-11T06:47:59;1.02;;;0.90;;
52718;SDS011;38616;42.140;24.760;2022-07-11T06:50:25;3.42;;;1.00;;
52718;SDS011;38616;42.140;24.760;2022-07-11T06:52:51;3.28;;;1.38;;
52718;SDS011;38616;42.140;24.760;2022-07-11T06:55:16;3.80;;;0.73;;
52718;SDS011;38616;42.140;24.760;2022-07-11T06:57:42;3.40;;;1.05;;
52718;SDS011;38616;42.140;24.760;2022-07-11T07:00:07;0.80;;;0.80;;
52718;SDS011;38616;42.140;24.760;2022-07-11T07:02:34;3.30;;;0.75;;
52718;SDS011;38616;42.140;24.760;2022-07-11T07:05:00;3.50;;;1.00;;
52718;SDS011;38616;42.140;24.760;2022-07-11T07:07:26;3.85;;;1.02;;
52718;SDS011;38616;42.140;24.760;2022-07-11T07:09:53;5.50;;;1.13;;
52718;SDS011;38616;42.140;24.760;2022-07-11T07:12:19;1.40;;;1.00;;
52718;SDS011;38616;42.140;24.760;2022-07-11T07:14:48;1.17;;;0.95;;
52718;SDS011;38616;42.140;24.760;2022-07-11T07:17:14;1.85;;;0.90;;
52718;SDS011;38616;42.140;24.760;2022-07-11T07:19:40;1.02;;;0.80;;
52718;SDS011;38616;42.140;24.760;2022-07-11T07:22:05;4.13;;;0.98;;
52718;SDS011;38616;42.140;24.760;2022-07-11T07:24:32;1.70;;;0.90;;
52718;SDS011;38616;42.140;24.760;2022-07-11T07:26:57;3.50;;;1.00;;
52718;SDS011;38616;42.140;24.760;2022-07-11T07:29:23;3.83;;;1.00;;
52718;SDS011;38616;42.140;24.760;2022-07-11T07:31:50;2.08;;;0.90;;
52718;SDS011;38616;42.140;24.760;2022-07-11T07:34:18;3.40;;;0.80;;
52718;SDS011;38616;42.140;24.760;2022-07-11T07:36:44;1.55;;;1.20;;
52718;SDS011;38616;42.140;24.760;2022-07-11T07:39:09;4.80;;;1.00;;
52718;SDS011;38616;42.140;24.760;2022-07-11T07:41:34;2.83;;;1.30;;
52718;SDS011;38616;42.140;24.760;2022-07-11T07:44:00;0.90;;;0.80;;
52718;SDS011;38616;42.140;24.760;2022-07-11T07:46:25;3.55;;;1.05;;
52718;SDS011;38616;42.140;24.760;2022-07-11T07:48:51;1.75;;;0.95;;
52718;SDS011;38616;42.140;24.760;2022-07-11T07:51:16;3.45;;;0.80;;
52718;SDS011;38616;42.140;24.760;2022-07-11T07:53:42;1.55;;;0.80;;
52718;SDS011;38616;42.140;24.760;2022-07-11T07:56:07;1.83;;;0.73;;
52718;SDS011;38616;42.140;24.760;2022-07-11T07:58:36;4.32;;;0.82;;
52718;SDS011;38616;42.140;24.760;2022-07-11T08:01:01;2.88;;;0.80;;
52718;SDS011;38616;42.140;24.760;2022-07-11T08:03:45;4.03;;;0.90;;
52718;SDS011;38616;42.140;24.760;2022-07-11T08:06:10;2.45;;;0.70;;
52718;SDS011;38616;42.140;24.760;2022-07-11T08:08:36;1.98;;;0.80;;
52718;SDS011;38616;42.140;24.760;2022-07-11T08:11:02;1.70;;;0.85;;
52718;SDS011;38616;42.140;24.760;2022-07-11T08:13:28;1.15;;;0.80;;
52718;SDS011;38616;42.140;24.760;2022-07-11T08:15:54;3.13;;;1.13;;
52718;SDS011;38616;42.140;24.760;2022-07-11T08:18:20;0.73;;;0.73;;
52718;SDS011;38616;42.140;24.760;2022-07-11T08:20:45;1.23;;;0.90;;
52718;SDS011;38616;42.140;24.760;2022-07-11T08:23:11;2.30;;;1.17;;
52718;SDS011;38616;42.140;24.760;2022-07-11T08:25:37;1.33;;;0.80;;
52718;SDS011;38616;42.140;24.760;2022-07-11T08:28:04;2.28;;;0.85;;
52718;SDS011;38616;42.140;24.760;2022-07-11T08:30:30;3.63;;;0.95;;
52718;SDS011;38616;42.140;24.760;2022-07-11T08:32:55;2.75;;;1.15;;
52718;SDS011;38616;42.140;24.760;2022-07-11T08:35:21;1.80;;;1.00;;
52718;SDS011;38616;42.140;24.760;2022-07-11T08:37:46;2.03;;;0.75;;
52718;SDS011;38616;42.140;24.760;2022-07-11T08:40:12;1.70;;;0.85;;
52718;SDS011;38616;42.140;24.760;2022-07-11T08:42:41;5.63;;;0.85;;
52718;SDS011;38616;42.140;24.760;2022-07-11T08:45:11;2.70;;;0.80;;
52718;SDS011;38616;42.140;24.760;2022-07-11T08:47:38;1.20;;;0.80;;
52718;SDS011;38616;42.140;24.760;2022-07-11T08:50:04;2.05;;;0.75;;
52718;SDS011;38616;42.140;24.760;2022-07-11T08:52:31;3.20;;;0.90;;
52718;SDS011;38616;42.140;24.760;2022-07-11T08:54:57;3.70;;;0.90;;
52718;SDS011;38616;42.140;24.760;2022-07-11T08:57:22;2.65;;;0.95;;
52718;SDS011;38616;42.140;24.760;2022-07-11T08:59:48;2.42;;;1.00;;
52718;SDS011;38616;42.140;24.760;2022-07-11T09:02:17;2.42;;;0.85;;
52718;SDS011;38616;42.140;24.760;2022-07-11T09:04:44;2.37;;;1.20;;
52718;SDS011;38616;42.140;24.760;2022-07-11T09:07:09;0.82;;;0.75;;
52718;SDS011;38616;42.140;24.760;2022-07-11T09:09:35;1.08;;;0.82;;
52718;SDS011;38616;42.140;24.760;2022-07-11T09:12:00;1.88;;;1.00;;
52718;SDS011;38616;42.140;24.760;2022-07-11T09:14:29;2.72;;;0.75;;
52718;SDS011;38616;42.140;24.760;2022-07-11T09:17:00;1.02;;;0.57;;
52718;SDS011;38616;42.140;24.760;2022-07-11T09:19:29;1.23;;;0.80;;
52718;SDS011;38616;42.140;24.760;2022-07-11T09:21:57;2.20;;;1.00;;
52718;SDS011;38616;42.140;24.760;2022-07-11T09:24:51;2.53;;;0.65;;
52718;SDS011;38616;42.140;24.760;2022-07-11T09:27:40;5.03;;;2.45;;
52718;SDS011;38616;42.140;24.760;2022-07-11T09:30:17;1.77;;;0.90;;
52718;SDS011;38616;42.140;24.760;2022-07-11T09:32:54;1.15;;;0.85;;
52718;SDS011;38616;42.140;24.760;2022-07-11T09:35:22;1.05;;;0.70;;
52718;SDS011;38616;42.140;24.760;2022-07-11T09:37:50;1.02;;;0.60;;
52718;SDS011;38616;42.140;24.760;2022-07-11T09:40:16;4.32;;;0.93;;
52718;SDS011;38616;42.140;24.760;2022-07-11T09:42:55;1.00;;;0.90;;
52718;SDS011;38616;42.140;24.760;2022-07-11T09:45:22;2.65;;;0.80;;
52718;SDS011;38616;42.140;24.760;2022-07-11T09:47:51;1.95;;;0.70;;
52718;SDS011;38616;42.140;24.760;2022-07-11T09:50:18;3.67;;;0.65;;
52718;SDS011;38616;42.140;24.760;2022-07-11T09:55:42;2.08;;;0.70;;
52718;SDS011;38616;42.140;24.760;2022-07-11T09:58:12;0.63;;;0.57;;
52718;SDS011;38616;42.140;24.760;2022-07-11T10:00:39;1.98;;;0.70;;
52718;SDS011;38616;42.140;24.760;2022-07-11T10:03:06;4.35;;;0.73;;
52718;SDS011;38616;42.140;24.760;2022-07-11T10:05:33;8.50;;;1.67;;
52718;SDS011;38616;42.140;24.760;2022-07-11T10:07:59;5.35;;;0.90;;
52718;SDS011;38616;42.140;24.760;2022-07-11T10:10:26;3.42;;;1.60;;
52718;SDS011;38616;42.140;24.760;2022-07-11T10:12:53;2.42;;;0.45;;
52718;SDS011;38616;42.140;24.760;2022-07-11T10:15:40;1.98;;;0.52;;
52718;SDS011;38616;42.140;24.760;2022-07-11T10:26:55;1.83;;;0.60;;
52718;SDS011;38616;42.140;24.760;2022-07-11T10:29:07;6.20;;;0.98;;
52718;SDS011;38616;42.140;24.760;2022-07-11T10:31:39;2.45;;;0.50;;
52718;SDS011;38616;42.140;24.760;2022-07-11T10:34:06;1.90;;;0.60;;
52718;SDS011;38616;42.140;24.760;2022-07-11T10:36:41;3.97;;;0.80;;
52718;SDS011;38616;42.140;24.760;2022-07-11T10:39:15;5.15;;;0.73;;
52718;SDS011;38616;42.140;24.760;2022-07-11T10:41:42;0.60;;;0.57;;
52718;SDS011;38616;42.140;24.760;2022-07-11T10:44:08;4.60;;;0.63;;
52718;SDS011;38616;42.140;24.760;2022-07-11T10:46:34;0.82;;;0.70;;
52718;SDS011;38616;42.140;24.760;2022-07-11T10:49:16;5.30;;;1.02;;
52718;SDS011;38616;42.140;24.760;2022-07-11T10:59:22;2.60;;;0.70;;
52718;SDS011;38616;42.140;24.760;2022-07-11T11:07:31;2.53;;;1.20;;
52718;SDS011;38616;42.140;24.760;2022-07-11T11:15:46;1.38;;;0.80;;
52718;SDS011;38616;42.140;24.760;2022-07-11T11:23:30;1.88;;;1.08;;
52718;SDS011;38616;42.140;24.760;2022-07-11T11:26:06;1.98;;;1.13;;
52718;SDS011;38616;42.140;24.760;2022-07-11T11:28:32;1.02;;;0.68;;
52718;SDS011;38616;42.140;24.760;2022-07-11T11:30:59;6.15;;;1.10;;
52718;SDS011;38616;42.140;24.760;2022-07-11T11:33:28;2.20;;;1.00;;
52718;SDS011;38616;42.140;24.760;2022-07-11T11:38:35;7.90;;;0.93;;
52718;SDS011;38616;42.140;24.760;2022-07-11T11:41:02;1.65;;;0.73;;
52718;SDS011;38616;42.140;24.760;2022-07-11T11:43:27;1.20;;;0.70;;
52718;SDS011;38616;42.140;24.760;2022-07-11T11:45:53;1.65;;;0.90;;
52718;SDS011;38616;42.140;24.760;2022-07-11T11:48:32;3.60;;;0.90;;
52718;SDS011;38616;42.140;24.760;2022-07-11T11:51:02;2.15;;;0.80;;
52718;SDS011;38616;42.140;24.760;2022-07-11T11:53:51;2.55;;;1.00;;
52718;SDS011;38616;42.140;24.760;2022-07-11T11:56:34;0.90;;;0.60;;
52718;SDS011;38616;42.140;24.760;2022-07-11T11:59:04;2.65;;;0.77;;
52718;SDS011;38616;42.140;24.760;2022-07-11T12:01:38;0.90;;;0.60;;
52718;SDS011;38616;42.140;24.760;2022-07-11T12:04:16;2.88;;;0.80;;
52718;SDS011;38616;42.140;24.760;2022-07-11T12:06:42;1.15;;;0.68;;
52718;SDS011;38616;42.140;24.760;2022-07-11T12:09:14;2.42;;;0.80;;
52718;SDS011;38616;42.140;24.760;2022-07-11T12:11:42;4.22;;;0.68;;
52718;SDS011;38616;42.140;24.760;2022-07-11T12:14:09;2.78;;;0.60;;
52718;SDS011;38616;42.140;24.760;2022-07-11T12:16:40;2.30;;;0.63;;
52718;SDS011;38616;42.140;24.760;2022-07-11T12:19:09;1.35;;;0.70;;
52718;SDS011;38616;42.140;24.760;2022-07-11T12:21:35;3.83;;;0.70;;
52718;SDS011;38616;42.140;24.760;2022-07-11T12:24:02;3.67;;;0.90;;
52718;SDS011;38616;42.140;24.760;2022-07-11T12:26:30;3.78;;;0.75;;
52718;SDS011;38616;42.140;24.760;2022-07-11T12:29:17;4.53;;;0.80;;
52718;SDS011;38616;42.140;24.760;2022-07-11T12:31:50;0.95;;;0.88;;
52718;SDS011;38616;42.140;24.760;2022-07-11T12:37:01;1.95;;;1.00;;
52718;SDS011;38616;42.140;24.760;2022-07-11T12:39:28;0.70;;;0.50;;
52718;SDS011;38616;42.140;24.760;2022-07-11T12:41:55;4.72;;;0.70;;
52718;SDS011;38616;42.140;24.760;2022-07-11T12:44:23;2.58;;;0.60;;
52718;SDS011;38616;42.140;24.760;2022-07-11T12:47:14;1.95;;;0.60;;
52718;SDS011;38616;42.140;24.760;2022-07-11T12:49:41;1.40;;;0.50;;
52718;SDS011;38616;42.140;24.760;2022-07-11T12:52:13;4.28;;;0.70;;
52718;SDS011;38616;42.140;24.760;2022-07-11T12:54:40;0.63;;;0.40;;
52718;SDS011;38616;42.140;24.760;2022-07-11T12:57:07;1.07;;;0.63;;
52718;SDS011;38616;42.140;24.760;2022-07-11T12:59:33;1.35;;;0.50;;
52718;SDS011;38616;42.140;24.760;2022-07-11T13:02:00;3.35;;;0.95;;
52718;SDS011;38616;42.140;24.760;2022-07-11T13:04:38;3.05;;;0.90;;
52718;SDS011;38616;42.140;24.760;2022-07-11T13:07:22;2.53;;;0.63;;
52718;SDS011;38616;42.140;24.760;2022-07-11T13:10:18;0.80;;;0.70;;
52718;SDS011;38616;42.140;24.760;2022-07-11T13:12:49;2.97;;;0.70;;
52718;SDS011;38616;42.140;24.760;2022-07-11T13:15:16;7.32;;;0.60;;
52718;SDS011;38616;42.140;24.760;2022-07-11T13:17:48;0.88;;;0.55;;
52718;SDS011;38616;42.140;24.760;2022-07-11T13:20:16;1.02;;;0.60;;
52718;SDS011;38616;42.140;24.760;2022-07-11T13:22:43;0.28;;;0.28;;
52718;SDS011;38616;42.140;24.760;2022-07-11T13:27:37;1.17;;;0.52;;
52718;SDS011;38616;42.140;24.760;2022-07-11T13:30:06;0.85;;;0.40;;
52718;SDS011;38616;42.140;24.760;2022-07-11T13:32:37;1.58;;;0.82;;
52718;SDS011;38616;42.140;24.760;2022-07-11T13:35:03;2.90;;;0.67;;
52718;SDS011;38616;42.140;24.760;2022-07-11T13:37:30;0.68;;;0.40;;
52718;SDS011;38616;42.140;24.760;2022-07-11T13:39:55;1.67;;;0.70;;
52718;SDS011;38616;42.140;24.760;2022-07-11T13:42:20;3.03;;;0.50;;
52718;SDS011;38616;42.140;24.760;2022-07-11T13:44:46;1.33;;;0.63;;
52718;SDS011;38616;42.140;24.760;2022-07-11T13:47:11;1.33;;;0.52;;
52718;SDS011;38616;42.140;24.760;2022-07-11T13:49:38;0.50;;;0.50;;
52718;SDS011;38616;42.140;24.760;2022-07-11T13:52:04;1.40;;;0.60;;
52718;SDS011;38616;42.140;24.760;2022-07-11T13:54:30;2.40;;;0.57;;
52718;SDS011;38616;42.140;24.760;2022-07-11T13:56:55;2.58;;;0.55;;
52718;SDS011;38616;42.140;24.760;2022-07-11T13:59:21;2.40;;;0.50;;
52718;SDS011;38616;42.140;24.760;2022-07-11T14:01:46;0.57;;;0.43;;
52718;SDS011;38616;42.140;24.760;2022-07-11T14:04:12;2.00;;;0.85;;
52718;SDS011;38616;42.140;24.760;2022-07-11T14:06:37;1.02;;;0.50;;
52718;SDS011;38616;42.140;24.760;2022-07-11T14:09:03;0.55;;;0.40;;
52718;SDS011;38616;42.140;24.760;2022-07-11T14:11:29;0.93;;;0.60;;
52718;SDS011;38616;42.140;24.760;2022-07-11T14:13:54;0.90;;;0.43;;
52718;SDS011;38616;42.140;24.760;2022-07-11T14:16:20;1.80;;;0.80;;
52718;SDS011;38616;42.140;24.760;2022-07-11T14:18:46;1.48;;;0.60;;
52718;SDS011;38616;42.140;24.760;2022-07-11T14:21:12;1.75;;;1.17;;
52718;SDS011;38616;42.140;24.760;2022-07-11T14:23:38;3.15;;;0.55;;
52718;SDS011;38616;42.140;24.760;2022-07-11T14:26:03;1.73;;;0.90;;
52718;SDS011;38616;42.140;24.760;2022-07-11T14:28:31;4.53;;;1.00;;
52718;SDS011;38616;42.140;24.760;2022-07-11T14:30:58;1.60;;;0.68;;
52718;SDS011;38616;42.140;24.760;2022-07-11T14:33:24;1.58;;;1.05;;
52718;SDS011;38616;42.140;24.760;2022-07-11T14:35:49;0.70;;;0.70;;
52718;SDS011;38616;42.140;24.760;2022-07-11T14:38:15;2.00;;;0.60;;
52718;SDS011;38616;42.140;24.760;2022-07-11T14:40:40;4.18;;;1.73;;
52718;SDS011;38616;42.140;24.760;2022-07-11T14:43:06;2.22;;;0.80;;
52718;SDS011;38616;42.140;24.760;2022-07-11T14:45:31;2.65;;;0.77;;
52718;SDS011;38616;42.140;24.760;2022-07-11T14:47:57;4.15;;;0.75;;
52718;SDS011;38616;42.140;24.760;2022-07-11T14:50:22;6.88;;;0.90;;
52718;SDS011;38616;42.140;24.760;2022-07-11T14:52:47;2.53;;;0.70;;
52718;SDS011;38616;42.140;24.760;2022-07-11T14:55:13;4.70;;;0.80;;
52718;SDS011;38616;42.140;24.760;2022-07-11T14:57:39;1.73;;;0.80;;
52718;SDS011;38616;42.140;24.760;2022-07-11T15:00:05;2.28;;;1.08;;
52718;SDS011;38616;42.140;24.760;2022-07-11T15:02:31;0.97;;;0.73;;
52718;SDS011;38616;42.140;24.760;2022-07-11T15:05:15;5.85;;;0.60;;
52718;SDS011;38616;42.140;24.760;2022-07-11T15:07:41;1.73;;;0.90;;
52718;SDS011;38616;42.140;24.760;2022-07-11T15:10:25;1.15;;;0.60;;
52718;SDS011;38616;42.140;24.760;2022-07-11T15:13:09;0.75;;;0.40;;
52718;SDS011;38616;42.140;24.760;2022-07-11T15:15:34;2.92;;;0.52;;
52718;SDS011;38616;42.140;24.760;2022-07-11T15:18:00;1.83;;;0.47;;